sensor_id;sensor_type;location;lat;lon;timestamp;temperature;humidity
12981;DHT22;6555;50.468;8.480;2022-10-17T00:01:11;17.00;63.00
12981;DHT22;6555;50.468;8.480;2022-10-17T00:06:15;17.00;62.90
12981;DHT22;6555;50.468;8.480;2022-10-17T00:11:21;17.00;62.70
12981;DHT22;6555;50.468;8.480;2022-10-17T00:16:26;16.90;62.90
12981;DHT22;6555;50.468;8.480;2022-10-17T00:21:30;16.90;62.80
12981;DHT22;6555;50.468;8.480;2022-10-17T00:26:34;16.80;62.70
12981;DHT22;6555;50.468;8.480;2022-10-17T00:31:37;16.80;62.70
12981;DHT22;6555;50.468;8.480;2022-10-17T00:36:40;16.70;62.60
12981;DHT22;6555;50.468;8.480;2022-10-17T00:41:45;16.70;62.60
12981;DHT22;6555;50.468;8.480;2022-10-17T00:46:48;16.60;62.60
12981;DHT22;6555;50.468;8.480;2022-10-17T00:51:53;16.50;62.70
12981;DHT22;6555;50.468;8.480;2022-10-17T00:57:00;16.50;62.80
12981;DHT22;6555;50.468;8.480;2022-10-17T01:02:05;16.40;62.70
12981;DHT22;6555;50.468;8.480;2022-10-17T01:07:09;16.40;62.50
12981;DHT22;6555;50.468;8.480;2022-10-17T01:12:18;16.30;62.50
12981;DHT22;6555;50.468;8.480;2022-10-17T01:17:26;16.20;62.80
12981;DHT22;6555;50.468;8.480;2022-10-17T01:22:36;16.20;63.00
12981;DHT22;6555;50.468;8.480;2022-10-17T01:27:55;16.10;62.90
12981;DHT22;6555;50.468;8.480;2022-10-17T01:33:07;16.10;63.10
12981;DHT22;6555;50.468;8.480;2022-10-17T01:38:16;16.00;62.90
12981;DHT22;6555;50.468;8.480;2022-10-17T01:43:24;16.00;63.30
12981;DHT22;6555;50.468;8.480;2022-10-17T01:48:38;16.00;63.50
12981;DHT22;6555;50.468;8.480;2022-10-17T01:53:48;16.00;63.70
12981;DHT22;6555;50.468;8.480;2022-10-17T01:58:55;16.00;63.50
12981;DHT22;6555;50.468;8.480;2022-10-17T02:04:01;16.00;63.30
12981;DHT22;6555;50.468;8.480;2022-10-17T02:09:19;16.00;63.40
12981;DHT22;6555;50.468;8.480;2022-10-17T02:14:31;15.90;63.60
12981;DHT22;6555;50.468;8.480;2022-10-17T02:19:47;15.90;64.30
12981;DHT22;6555;50.468;8.480;2022-10-17T02:24:58;15.80;63.70
12981;DHT22;6555;50.468;8.480;2022-10-17T02:30:05;15.90;63.70
12981;DHT22;6555;50.468;8.480;2022-10-17T02:35:15;15.90;63.70
12981;DHT22;6555;50.468;8.480;2022-10-17T02:40:21;15.90;63.70
12981;DHT22;6555;50.468;8.480;2022-10-17T02:45:28;15.90;63.80
12981;DHT22;6555;50.468;8.480;2022-10-17T02:50:48;15.90;63.80
12981;DHT22;6555;50.468;8.480;2022-10-17T02:55:57;15.90;64.10
12981;DHT22;6555;50.468;8.480;2022-10-17T03:01:06;15.90;63.90
12981;DHT22;6555;50.468;8.480;2022-10-17T03:06:11;15.90;64.00
12981;DHT22;6555;50.468;8.480;2022-10-17T03:11:14;16.00;64.20
12981;DHT22;6555;50.468;8.480;2022-10-17T03:16:17;16.00;63.90
12981;DHT22;6555;50.468;8.480;2022-10-17T03:21:22;16.10;63.80
12981;DHT22;6555;50.468;8.480;2022-10-17T03:26:26;16.10;63.80
12981;DHT22;6555;50.468;8.480;2022-10-17T03:31:31;16.00;63.50
12981;DHT22;6555;50.468;8.480;2022-10-17T03:36:36;16.00;63.60
12981;DHT22;6555;50.468;8.480;2022-10-17T03:41:40;16.00;63.60
12981;DHT22;6555;50.468;8.480;2022-10-17T03:46:43;15.90;63.40
12981;DHT22;6555;50.468;8.480;2022-10-17T03:51:47;15.80;63.30
12981;DHT22;6555;50.468;8.480;2022-10-17T03:56:52;15.80;63.40
12981;DHT22;6555;50.468;8.480;2022-10-17T04:01:56;15.70;63.40
12981;DHT22;6555;50.468;8.480;2022-10-17T04:07:00;15.70;63.30
12981;DHT22;6555;50.468;8.480;2022-10-17T04:12:04;15.70;63.30
12981;DHT22;6555;50.468;8.480;2022-10-17T04:17:09;15.60;63.30
12981;DHT22;6555;50.468;8.480;2022-10-17T04:22:14;15.60;63.40
12981;DHT22;6555;50.468;8.480;2022-10-17T04:27:17;15.50;63.50
12981;DHT22;6555;50.468;8.480;2022-10-17T04:32:21;15.50;63.50
12981;DHT22;6555;50.468;8.480;2022-10-17T04:37:33;15.50;63.70
12981;DHT22;6555;50.468;8.480;2022-10-17T04:42:42;15.50;63.70
12981;DHT22;6555;50.468;8.480;2022-10-17T04:47:49;15.50;63.70
12981;DHT22;6555;50.468;8.480;2022-10-17T04:52:53;15.40;63.60
12981;DHT22;6555;50.468;8.480;2022-10-17T04:57:56;15.40;63.70
12981;DHT22;6555;50.468;8.480;2022-10-17T05:02:59;15.40;63.60
12981;DHT22;6555;50.468;8.480;2022-10-17T05:08:05;15.40;63.70
12981;DHT22;6555;50.468;8.480;2022-10-17T05:13:08;15.30;63.60
12981;DHT22;6555;50.468;8.480;2022-10-17T05:18:12;15.30;63.40
12981;DHT22;6555;50.468;8.480;2022-10-17T05:23:18;15.30;63.60
12981;DHT22;6555;50.468;8.480;2022-10-17T05:28:24;15.30;63.70
12981;DHT22;6555;50.468;8.480;2022-10-17T05:33:31;15.20;63.50
12981;DHT22;6555;50.468;8.480;2022-10-17T05:38:36;15.20;63.60
12981;DHT22;6555;50.468;8.480;2022-10-17T05:43:40;15.20;63.80
12981;DHT22;6555;50.468;8.480;2022-10-17T05:48:44;15.10;63.80
12981;DHT22;6555;50.468;8.480;2022-10-17T05:53:49;15.10;63.80
12981;DHT22;6555;50.468;8.480;2022-10-17T05:58:57;15.10;64.10
12981;DHT22;6555;50.468;8.480;2022-10-17T06:04:16;15.20;64.20
12981;DHT22;6555;50.468;8.480;2022-10-17T06:09:22;15.20;64.40
12981;DHT22;6555;50.468;8.480;2022-10-17T06:14:28;15.30;64.80
12981;DHT22;6555;50.468;8.480;2022-10-17T06:19:35;15.30;64.80
12981;DHT22;6555;50.468;8.480;2022-10-17T06:24:40;15.40;64.90
12981;DHT22;6555;50.468;8.480;2022-10-17T06:29:43;15.50;65.20
12981;DHT22;6555;50.468;8.480;2022-10-17T06:34:46;15.60;65.20
12981;DHT22;6555;50.468;8.480;2022-10-17T06:39:50;15.70;65.40
12981;DHT22;6555;50.468;8.480;2022-10-17T06:44:56;15.90;65.60
12981;DHT22;6555;50.468;8.480;2022-10-17T06:50:17;16.00;65.60
12981;DHT22;6555;50.468;8.480;2022-10-17T06:55:40;16.20;65.80
12981;DHT22;6555;50.468;8.480;2022-10-17T07:01:07;16.40;66.40
12981;DHT22;6555;50.468;8.480;2022-10-17T07:06:11;16.60;66.70
12981;DHT22;6555;50.468;8.480;2022-10-17T07:11:19;16.80;66.80
12981;DHT22;6555;50.468;8.480;2022-10-17T07:16:25;17.00;67.20
12981;DHT22;6555;50.468;8.480;2022-10-17T07:21:37;17.30;67.90
12981;DHT22;6555;50.468;8.480;2022-10-17T07:26:44;17.50;67.20
12981;DHT22;6555;50.468;8.480;2022-10-17T07:31:48;17.70;67.40
12981;DHT22;6555;50.468;8.480;2022-10-17T07:36:52;18.10;67.30
12981;DHT22;6555;50.468;8.480;2022-10-17T07:41:58;18.30;67.10
12981;DHT22;6555;50.468;8.480;2022-10-17T07:47:01;18.50;67.00
12981;DHT22;6555;50.468;8.480;2022-10-17T07:52:05;18.70;66.90
12981;DHT22;6555;50.468;8.480;2022-10-17T07:57:09;18.80;66.80
12981;DHT22;6555;50.468;8.480;2022-10-17T08:02:19;19.00;67.20
12981;DHT22;6555;50.468;8.480;2022-10-17T08:07:23;19.30;67.30
12981;DHT22;6555;50.468;8.480;2022-10-17T08:12:31;19.50;67.00
12981;DHT22;6555;50.468;8.480;2022-10-17T08:17:36;19.70;67.10
12981;DHT22;6555;50.468;8.480;2022-10-17T08:22:39;19.90;67.00
12981;DHT22;6555;50.468;8.480;2022-10-17T08:27:44;20.10;66.60
12981;DHT22;6555;50.468;8.480;2022-10-17T08:32:47;20.30;66.20
12981;DHT22;6555;50.468;8.480;2022-10-17T08:37:49;20.40;65.90
12981;DHT22;6555;50.468;8.480;2022-10-17T08:43:16;20.60;65.60
12981;DHT22;6555;50.468;8.480;2022-10-17T08:48:23;20.80;65.20
12981;DHT22;6555;50.468;8.480;2022-10-17T08:53:32;20.90;65.10
12981;DHT22;6555;50.468;8.480;2022-10-17T08:58:38;21.10;64.40
12981;DHT22;6555;50.468;8.480;2022-10-17T09:03:55;21.20;64.60
12981;DHT22;6555;50.468;8.480;2022-10-17T09:09:14;21.40;64.10
12981;DHT22;6555;50.468;8.480;2022-10-17T09:14:39;21.50;64.10
12981;DHT22;6555;50.468;8.480;2022-10-17T09:19:53;21.60;64.70
12981;DHT22;6555;50.468;8.480;2022-10-17T09:25:02;21.70;64.00
12981;DHT22;6555;50.468;8.480;2022-10-17T09:30:24;21.80;64.00
12981;DHT22;6555;50.468;8.480;2022-10-17T09:35:47;21.90;63.00
12981;DHT22;6555;50.468;8.480;2022-10-17T09:40:54;22.00;64.70
12981;DHT22;6555;50.468;8.480;2022-10-17T09:46:04;22.20;63.40
12981;DHT22;6555;50.468;8.480;2022-10-17T09:51:08;22.40;63.10
12981;DHT22;6555;50.468;8.480;2022-10-17T09:56:26;22.50;63.10
12981;DHT22;6555;50.468;8.480;2022-10-17T10:01:30;22.70;62.80
12981;DHT22;6555;50.468;8.480;2022-10-17T10:06:35;22.80;62.40
12981;DHT22;6555;50.468;8.480;2022-10-17T10:11:47;23.00;62.30
12981;DHT22;6555;50.468;8.480;2022-10-17T10:16:52;23.10;61.90
12981;DHT22;6555;50.468;8.480;2022-10-17T10:21:56;23.30;62.40
12981;DHT22;6555;50.468;8.480;2022-10-17T10:27:02;23.50;62.50
12981;DHT22;6555;50.468;8.480;2022-10-17T10:32:10;23.60;61.00
12981;DHT22;6555;50.468;8.480;2022-10-17T10:37:19;23.80;60.20
12981;DHT22;6555;50.468;8.480;2022-10-17T10:42:26;23.90;59.90
12981;DHT22;6555;50.468;8.480;2022-10-17T10:47:31;24.00;59.70
12981;DHT22;6555;50.468;8.480;2022-10-17T10:52:40;24.10;59.50
12981;DHT22;6555;50.468;8.480;2022-10-17T10:57:46;24.20;59.00
12981;DHT22;6555;50.468;8.480;2022-10-17T11:02:58;24.30;59.00
12981;DHT22;6555;50.468;8.480;2022-10-17T11:08:09;24.40;58.70
12981;DHT22;6555;50.468;8.480;2022-10-17T11:13:17;24.60;58.50
12981;DHT22;6555;50.468;8.480;2022-10-17T11:18:27;24.70;58.70
12981;DHT22;6555;50.468;8.480;2022-10-17T11:23:36;24.70;58.90
12981;DHT22;6555;50.468;8.480;2022-10-17T11:28:41;24.90;58.80
12981;DHT22;6555;50.468;8.480;2022-10-17T11:33:49;25.00;59.30
12981;DHT22;6555;50.468;8.480;2022-10-17T11:38:57;25.20;58.90
12981;DHT22;6555;50.468;8.480;2022-10-17T11:44:07;25.40;58.80
12981;DHT22;6555;50.468;8.480;2022-10-17T11:49:19;25.60;58.10
12981;DHT22;6555;50.468;8.480;2022-10-17T11:54:29;25.70;58.00
12981;DHT22;6555;50.468;8.480;2022-10-17T11:59:56;25.80;57.80
12981;DHT22;6555;50.468;8.480;2022-10-17T12:05:08;26.00;57.30
12981;DHT22;6555;50.468;8.480;2022-10-17T12:10:23;26.10;57.40
12981;DHT22;6555;50.468;8.480;2022-10-17T12:15:28;26.10;56.90
12981;DHT22;6555;50.468;8.480;2022-10-17T12:20:35;26.10;56.90
12981;DHT22;6555;50.468;8.480;2022-10-17T12:25:49;26.10;56.70
12981;DHT22;6555;50.468;8.480;2022-10-17T12:30:58;26.10;56.40
12981;DHT22;6555;50.468;8.480;2022-10-17T12:41:55;26.20;56.80
12981;DHT22;6555;50.468;8.480;2022-10-17T12:47:27;26.30;56.10
12981;DHT22;6555;50.468;8.480;2022-10-17T12:52:51;26.40;56.40
12981;DHT22;6555;50.468;8.480;2022-10-17T12:58:02;26.50;55.80
12981;DHT22;6555;50.468;8.480;2022-10-17T13:03:12;26.40;55.90
12981;DHT22;6555;50.468;8.480;2022-10-17T13:08:19;26.50;55.50
12981;DHT22;6555;50.468;8.480;2022-10-17T13:13:29;26.40;55.80
12981;DHT22;6555;50.468;8.480;2022-10-17T13:18:38;26.50;55.90
12981;DHT22;6555;50.468;8.480;2022-10-17T13:23:41;26.50;56.10
12981;DHT22;6555;50.468;8.480;2022-10-17T13:28:44;26.60;56.00
12981;DHT22;6555;50.468;8.480;2022-10-17T13:33:55;26.60;56.00
12981;DHT22;6555;50.468;8.480;2022-10-17T13:38:59;26.70;55.30
12981;DHT22;6555;50.468;8.480;2022-10-17T13:44:12;26.80;55.80
12981;DHT22;6555;50.468;8.480;2022-10-17T13:49:20;26.90;55.10
12981;DHT22;6555;50.468;8.480;2022-10-17T13:54:34;27.00;55.80
12981;DHT22;6555;50.468;8.480;2022-10-17T13:59:38;27.10;55.50
12981;DHT22;6555;50.468;8.480;2022-10-17T14:04:44;27.20;55.50
12981;DHT22;6555;50.468;8.480;2022-10-17T14:10:17;27.30;55.10
12981;DHT22;6555;50.468;8.480;2022-10-17T14:15:23;27.30;55.10
12981;DHT22;6555;50.468;8.480;2022-10-17T14:20:28;27.40;54.90
12981;DHT22;6555;50.468;8.480;2022-10-17T14:26:03;27.40;54.80
12981;DHT22;6555;50.468;8.480;2022-10-17T14:31:28;27.30;54.70
12981;DHT22;6555;50.468;8.480;2022-10-17T14:36:38;27.30;54.30
12981;DHT22;6555;50.468;8.480;2022-10-17T14:41:43;27.20;54.30
12981;DHT22;6555;50.468;8.480;2022-10-17T14:46:49;27.10;54.50
12981;DHT22;6555;50.468;8.480;2022-10-17T14:52:26;26.90;54.00
12981;DHT22;6555;50.468;8.480;2022-10-17T14:57:40;26.70;53.90
12981;DHT22;6555;50.468;8.480;2022-10-17T15:02:45;26.60;53.90
12981;DHT22;6555;50.468;8.480;2022-10-17T15:07:50;26.50;54.50
12981;DHT22;6555;50.468;8.480;2022-10-17T15:12:53;26.30;54.50
12981;DHT22;6555;50.468;8.480;2022-10-17T16:00:18;25.40;53.70
12981;DHT22;6555;50.468;8.480;2022-10-17T16:05:24;25.30;54.20
12981;DHT22;6555;50.468;8.480;2022-10-17T16:10:27;25.20;54.50
12981;DHT22;6555;50.468;8.480;2022-10-17T16:15:31;25.10;54.70
12981;DHT22;6555;50.468;8.480;2022-10-17T16:20:35;25.00;54.70
12981;DHT22;6555;50.468;8.480;2022-10-17T16:25:38;24.90;54.70
12981;DHT22;6555;50.468;8.480;2022-10-17T16:30:43;24.70;54.50
12981;DHT22;6555;50.468;8.480;2022-10-17T16:35:47;24.50;54.40
12981;DHT22;6555;50.468;8.480;2022-10-17T16:40:50;24.30;54.60
12981;DHT22;6555;50.468;8.480;2022-10-17T16:45:54;24.20;54.70
12981;DHT22;6555;50.468;8.480;2022-10-17T16:50:57;24.00;54.70
12981;DHT22;6555;50.468;8.480;2022-10-17T16:56:01;23.90;54.80
12981;DHT22;6555;50.468;8.480;2022-10-17T17:01:07;23.70;55.00
12981;DHT22;6555;50.468;8.480;2022-10-17T17:06:12;23.60;55.00
12981;DHT22;6555;50.468;8.480;2022-10-17T17:11:17;23.50;55.00
12981;DHT22;6555;50.468;8.480;2022-10-17T17:16:23;23.30;55.00
12981;DHT22;6555;50.468;8.480;2022-10-17T17:21:26;23.20;55.10
12981;DHT22;6555;50.468;8.480;2022-10-17T17:26:31;23.10;55.10
12981;DHT22;6555;50.468;8.480;2022-10-17T17:31:37;23.00;55.10
12981;DHT22;6555;50.468;8.480;2022-10-17T17:36:50;22.90;55.30
12981;DHT22;6555;50.468;8.480;2022-10-17T17:41:55;22.80;55.30
12981;DHT22;6555;50.468;8.480;2022-10-17T17:46:59;22.60;55.30
12981;DHT22;6555;50.468;8.480;2022-10-17T17:52:03;22.60;55.40
12981;DHT22;6555;50.468;8.480;2022-10-17T17:57:06;22.40;55.40
12981;DHT22;6555;50.468;8.480;2022-10-17T18:02:11;22.30;55.50
12981;DHT22;6555;50.468;8.480;2022-10-17T18:07:14;22.30;55.80
12981;DHT22;6555;50.468;8.480;2022-10-17T18:12:17;22.20;55.60
12981;DHT22;6555;50.468;8.480;2022-10-17T18:17:22;22.10;55.80
12981;DHT22;6555;50.468;8.480;2022-10-17T18:22:25;22.00;55.70
12981;DHT22;6555;50.468;8.480;2022-10-17T18:27:28;22.00;55.80
12981;DHT22;6555;50.468;8.480;2022-10-17T18:32:33;21.90;56.00
12981;DHT22;6555;50.468;8.480;2022-10-17T18:37:36;21.80;56.10
12981;DHT22;6555;50.468;8.480;2022-10-17T18:42:41;21.80;56.20
12981;DHT22;6555;50.468;8.480;2022-10-17T18:47:45;21.70;56.40
12981;DHT22;6555;50.468;8.480;2022-10-17T18:52:49;21.70;56.40
12981;DHT22;6555;50.468;8.480;2022-10-17T18:57:52;21.70;56.40
12981;DHT22;6555;50.468;8.480;2022-10-17T19:02:56;21.70;56.50
12981;DHT22;6555;50.468;8.480;2022-10-17T19:07:59;21.70;56.60
12981;DHT22;6555;50.468;8.480;2022-10-17T19:13:02;21.70;56.70
12981;DHT22;6555;50.468;8.480;2022-10-17T19:18:07;21.60;56.60
12981;DHT22;6555;50.468;8.480;2022-10-17T19:23:10;21.60;56.60
12981;DHT22;6555;50.468;8.480;2022-10-17T19:28:13;21.60;56.70
12981;DHT22;6555;50.468;8.480;2022-10-17T19:33:17;21.60;56.70
12981;DHT22;6555;50.468;8.480;2022-10-17T19:38:20;21.60;56.70
12981;DHT22;6555;50.468;8.480;2022-10-17T19:43:23;21.60;56.70
12981;DHT22;6555;50.468;8.480;2022-10-17T19:48:30;21.60;56.80
12981;DHT22;6555;50.468;8.480;2022-10-17T19:53:34;21.50;56.90
12981;DHT22;6555;50.468;8.480;2022-10-17T19:58:38;21.50;56.90
12981;DHT22;6555;50.468;8.480;2022-10-17T20:03:47;21.50;57.00
12981;DHT22;6555;50.468;8.480;2022-10-17T20:08:51;21.50;57.10
12981;DHT22;6555;50.468;8.480;2022-10-17T20:13:54;21.50;57.00
12981;DHT22;6555;50.468;8.480;2022-10-17T20:19:10;21.40;56.70
12981;DHT22;6555;50.468;8.480;2022-10-17T20:24:14;21.30;56.90
12981;DHT22;6555;50.468;8.480;2022-10-17T20:29:19;21.30;56.80
12981;DHT22;6555;50.468;8.480;2022-10-17T20:34:25;21.20;56.90
12981;DHT22;6555;50.468;8.480;2022-10-17T20:39:29;21.10;56.80
12981;DHT22;6555;50.468;8.480;2022-10-17T20:44:32;21.00;56.70
12981;DHT22;6555;50.468;8.480;2022-10-17T20:49:36;21.00;56.70
12981;DHT22;6555;50.468;8.480;2022-10-17T20:54:39;20.90;56.90
12981;DHT22;6555;50.468;8.480;2022-10-17T20:59:42;20.80;56.80
12981;DHT22;6555;50.468;8.480;2022-10-17T21:04:47;20.70;56.90
12981;DHT22;6555;50.468;8.480;2022-10-17T21:09:51;20.60;57.60
12981;DHT22;6555;50.468;8.480;2022-10-17T21:14:54;20.50;57.10
12981;DHT22;6555;50.468;8.480;2022-10-17T21:19:58;20.50;57.20
12981;DHT22;6555;50.468;8.480;2022-10-17T21:25:01;20.50;57.30
12981;DHT22;6555;50.468;8.480;2022-10-17T21:30:05;20.40;57.20
12981;DHT22;6555;50.468;8.480;2022-10-17T21:35:10;20.40;57.20
12981;DHT22;6555;50.468;8.480;2022-10-17T21:40:13;20.30;57.30
12981;DHT22;6555;50.468;8.480;2022-10-17T21:45:16;20.20;57.10
12981;DHT22;6555;50.468;8.480;2022-10-17T21:50:27;20.20;57.20
12981;DHT22;6555;50.468;8.480;2022-10-17T21:55:30;20.10;57.40
12981;DHT22;6555;50.468;8.480;2022-10-17T22:00:33;20.00;57.30
12981;DHT22;6555;50.468;8.480;2022-10-17T22:05:37;20.00;57.40
12981;DHT22;6555;50.468;8.480;2022-10-17T22:10:40;20.00;57.60
12981;DHT22;6555;50.468;8.480;2022-10-17T22:15:43;19.90;57.60
12981;DHT22;6555;50.468;8.480;2022-10-17T22:20:48;19.90;57.60
12981;DHT22;6555;50.468;8.480;2022-10-17T22:25:54;19.80;57.70
12981;DHT22;6555;50.468;8.480;2022-10-17T22:30:57;19.80;57.80
12981;DHT22;6555;50.468;8.480;2022-10-17T22:36:02;19.80;57.60
12981;DHT22;6555;50.468;8.480;2022-10-17T22:41:05;19.70;57.80
12981;DHT22;6555;50.468;8.480;2022-10-17T22:46:09;19.70;57.90
12981;DHT22;6555;50.468;8.480;2022-10-17T22:51:15;19.70;58.00
12981;DHT22;6555;50.468;8.480;2022-10-17T22:56:19;19.70;58.20
12981;DHT22;6555;50.468;8.480;2022-10-17T23:01:24;19.70;58.20
12981;DHT22;6555;50.468;8.480;2022-10-17T23:06:28;19.70;58.20
12981;DHT22;6555;50.468;8.480;2022-10-17T23:11:31;19.70;58.20
12981;DHT22;6555;50.468;8.480;2022-10-17T23:16:34;19.60;58.00
12981;DHT22;6555;50.468;8.480;2022-10-17T23:21:38;19.60;58.20
12981;DHT22;6555;50.468;8.480;2022-10-17T23:26:41;19.60;58.30
12981;DHT22;6555;50.468;8.480;2022-10-17T23:31:44;19.60;58.40
12981;DHT22;6555;50.468;8.480;2022-10-17T23:36:50;19.60;58.40
12981;DHT22;6555;50.468;8.480;2022-10-17T23:41:53;19.60;58.60
12981;DHT22;6555;50.468;8.480;2022-10-17T23:46:56;19.60;58.40
12981;DHT22;6555;50.468;8.480;2022-10-17T23:52:00;19.60;58.40
12981;DHT22;6555;50.468;8.480;2022-10-17T23:57:03;19.50;58.50
